createdAt,value
2022-11-05T00:00:36.756Z,99060.13
2022-11-05T00:03:28.359Z,99056.38
2022-11-05T00:06:13.726Z,99057.44
2022-11-05T00:09:00.032Z,99068.25
2022-11-05T00:11:45.563Z,99068.75
2022-11-05T00:14:32.178Z,99058.72
2022-11-05T00:16:59.154Z,99067.00
2022-11-05T00:19:26.438Z,99070.47
2022-11-05T00:22:11.979Z,99081.22
2022-11-05T00:24:57.564Z,99082.91
2022-11-05T00:27:24.540Z,99090.94
2022-11-05T00:29:52.092Z,99101.00
2022-11-05T00:32:19.033Z,99103.25
2022-11-05T00:34:46.339Z,99105.25
2022-11-05T00:37:13.253Z,99110.50
2022-11-05T00:39:40.996Z,99111.25
2022-11-05T00:42:26.602Z,99111.69
2022-11-05T00:45:02.813Z,99107.97
2022-11-05T00:47:49.748Z,99117.53
2022-11-05T00:50:18.139Z,99125.03
2022-11-05T00:52:57.437Z,99123.56
2022-11-05T00:55:46.017Z,99135.84
2022-11-05T00:58:19.746Z,99140.13
2022-11-05T01:00:53.527Z,99136.38
2022-11-05T01:03:23.033Z,99139.16
2022-11-05T01:05:53.506Z,99139.38
2022-11-05T01:08:22.210Z,99139.59
2022-11-05T01:10:55.017Z,99136.88
2022-11-05T01:13:29.991Z,99134.66
2022-11-05T01:15:57.508Z,99146.03
2022-11-05T01:18:25.422Z,99148.34
2022-11-05T01:20:52.838Z,99151.63
2022-11-05T01:23:20.322Z,99176.69
2022-11-05T01:25:48.063Z,99191.78
2022-11-05T01:28:15.145Z,99194.97
2022-11-05T01:30:42.437Z,99189.44
2022-11-05T01:33:09.699Z,99168.06
2022-11-05T01:35:37.153Z,99187.16
2022-11-05T01:38:04.104Z,99202.00
2022-11-05T01:40:31.362Z,99188.50
2022-11-05T01:43:00.557Z,99175.13
2022-11-05T01:45:29.150Z,99167.59
2022-11-05T01:48:11.447Z,99166.56
2022-11-05T01:50:58.011Z,99155.75
2022-11-05T01:53:24.801Z,99151.72
2022-11-05T01:56:03.266Z,99168.28
2022-11-05T01:58:48.790Z,99181.69
2022-11-05T02:01:16.513Z,99186.25
2022-11-05T02:03:45.239Z,99203.59
2022-11-05T02:06:18.801Z,99196.41
2022-11-05T02:08:52.078Z,99188.94
2022-11-05T02:11:22.095Z,99190.75
2022-11-05T02:13:49.732Z,99190.50
2022-11-05T02:16:47.708Z,99181.25
2022-11-05T02:19:20.673Z,99188.31
2022-11-05T02:21:59.020Z,99189.81
2022-11-05T02:24:31.661Z,99186.81
2022-11-05T02:27:05.429Z,99181.28
2022-11-05T02:29:32.998Z,99177.84
2022-11-05T02:32:35.719Z,99175.63
2022-11-05T02:35:29.642Z,99167.41
2022-11-05T02:38:02.918Z,99161.81
2022-11-05T02:40:54.793Z,99168.31
2022-11-05T02:43:35.553Z,99173.53
2022-11-05T02:46:27.741Z,99168.53
2022-11-05T02:49:26.519Z,99168.53
2022-11-05T02:51:58.708Z,99181.88
2022-11-05T02:54:32.496Z,99180.91
2022-11-05T02:57:01.188Z,99177.16
2022-11-05T02:59:31.056Z,99181.19
2022-11-05T03:01:59.577Z,99185.19
2022-11-05T03:04:30.547Z,99177.16
2022-11-05T03:07:25.089Z,99171.88
2022-11-05T03:09:55.334Z,99168.88
2022-11-05T03:12:42.605Z,99172.88
2022-11-05T03:15:26.600Z,99170.78
2022-11-05T03:18:03.118Z,99179.53
2022-11-05T03:20:59.030Z,99182.81
2022-11-05T03:23:34.256Z,99191.59
2022-11-05T03:26:17.684Z,99192.31
2022-11-05T03:28:50.587Z,99189.81
2022-11-05T03:31:18.906Z,99192.13
2022-11-05T03:33:48.291Z,99188.56
2022-11-05T03:36:30.848Z,99199.00
2022-11-05T03:39:07.222Z,99193.50
2022-11-05T03:41:36.752Z,99195.44
2022-11-05T03:44:07.431Z,99196.41
2022-11-05T03:46:41.782Z,99201.41
2022-11-05T03:49:15.047Z,99208.66
2022-11-05T03:51:51.114Z,99207.91
2022-11-05T03:54:20.975Z,99207.16
2022-11-05T03:57:09.312Z,99195.59
2022-11-05T03:59:45.985Z,99199.59
2022-11-05T04:02:15.937Z,99194.59
2022-11-05T04:04:43.053Z,99185.56
2022-11-05T04:07:30.435Z,99184.06
2022-11-05T04:10:15.957Z,99177.78
2022-11-05T04:13:01.785Z,99177.34
2022-11-05T04:15:52.111Z,99176.53
2022-11-05T04:18:19.642Z,99172.75
2022-11-05T04:21:05.191Z,99169.69
2022-11-05T04:23:51.028Z,99174.22
2022-11-05T04:26:23.393Z,99169.00
2022-11-05T04:29:09.761Z,99178.03
2022-11-05T04:31:37.582Z,99186.84
2022-11-05T04:34:04.918Z,99209.09
2022-11-05T04:36:32.172Z,99213.16
2022-11-05T04:38:59.571Z,99218.66
2022-11-05T04:41:26.814Z,99231.41
2022-11-05T04:43:54.054Z,99236.72
2022-11-05T04:46:21.023Z,99235.69
2022-11-05T04:48:48.584Z,99241.50
2022-11-05T04:51:15.573Z,99240.22
2022-11-05T04:53:42.796Z,99249.78
2022-11-05T04:56:21.689Z,99244.78
2022-11-05T04:58:50.063Z,99260.28
2022-11-05T05:01:19.757Z,99254.53
2022-11-05T05:03:48.977Z,99263.81
2022-11-05T05:06:16.792Z,99264.53
2022-11-05T05:08:47.469Z,99269.81
2022-11-05T05:11:16.835Z,99281.84
2022-11-05T05:13:44.706Z,99274.84
2022-11-05T05:16:26.937Z,99275.13
2022-11-05T05:18:54.730Z,99264.09
2022-11-05T05:21:41.518Z,99262.88
2022-11-05T05:24:12.014Z,99263.38
2022-11-05T05:26:44.214Z,99254.41
2022-11-05T05:29:14.266Z,99269.22
2022-11-05T05:31:41.326Z,99273.72
2022-11-05T05:34:11.910Z,99269.19
2022-11-05T05:36:41.302Z,99272.94
2022-11-05T05:39:11.140Z,99276.44
2022-11-05T05:41:38.326Z,99288.47
2022-11-05T05:44:06.767Z,99296.50
2022-11-05T05:46:34.313Z,99303.75
2022-11-05T05:49:01.644Z,99310.53
2022-11-05T05:51:28.651Z,99306.06
2022-11-05T05:53:56.112Z,99313.06
2022-11-05T05:56:23.153Z,99317.09
2022-11-05T05:58:53.382Z,99311.56
2022-11-05T06:01:20.594Z,99321.63
2022-11-05T06:03:49.075Z,99325.56
2022-11-05T06:06:19.973Z,99324.84
2022-11-05T06:08:47.975Z,99338.13
2022-11-05T06:11:15.175Z,99333.81
2022-11-05T06:13:42.491Z,99328.78
2022-11-05T06:16:10.338Z,99341.81
2022-11-05T06:18:38.303Z,99337.06
2022-11-05T06:21:08.027Z,99324.25
2022-11-05T06:23:36.708Z,99330.25
2022-11-05T06:26:06.734Z,99333.78
2022-11-05T06:28:34.529Z,99345.56
2022-11-05T06:31:02.087Z,99344.00
2022-11-05T06:33:29.702Z,99357.28
2022-11-05T06:36:01.485Z,99357.53
2022-11-05T06:38:31.386Z,99362.31
2022-11-05T06:40:59.653Z,99363.03
2022-11-05T06:43:28.126Z,99365.81
2022-11-05T06:45:56.464Z,99380.59
2022-11-05T06:48:25.357Z,99379.56
2022-11-05T06:50:52.368Z,99386.81
2022-11-05T06:53:21.818Z,99382.31
2022-11-05T06:55:48.820Z,99394.31
2022-11-05T06:58:18.903Z,99397.56
2022-11-05T07:00:46.281Z,99394.03
2022-11-05T07:03:14.073Z,99392.75
2022-11-05T07:05:45.178Z,99394.22
2022-11-05T07:08:12.485Z,99391.94
2022-11-05T07:10:39.819Z,99401.44
2022-11-05T07:13:08.702Z,99398.91
2022-11-05T07:15:37.167Z,99388.63
2022-11-05T07:18:07.499Z,99395.63
2022-11-05T07:20:35.081Z,99394.59
2022-11-05T07:23:04.169Z,99398.84
2022-11-05T07:25:32.908Z,99422.16
2022-11-05T07:28:00.899Z,99419.09
2022-11-05T07:30:29.151Z,99423.38
2022-11-05T07:32:56.549Z,99421.81
2022-11-05T07:35:23.528Z,99423.25
2022-11-05T07:37:54.095Z,99413.94
2022-11-05T07:40:23.115Z,99419.91
2022-11-05T07:42:54.765Z,99417.84
2022-11-05T07:45:22.079Z,99423.56
2022-11-05T07:47:55.065Z,99439.09
2022-11-05T07:50:25.470Z,99434.03
2022-11-05T07:52:52.915Z,99432.25
2022-11-05T07:55:20.948Z,99440.06
2022-11-05T07:57:50.551Z,99434.47
2022-11-05T08:00:22.368Z,99440.19
2022-11-05T08:03:12.279Z,99441.31
2022-11-05T08:05:42.109Z,99439.78
2022-11-05T08:08:10.339Z,99435.19
2022-11-05T08:10:38.588Z,99438.84
2022-11-05T08:13:07.212Z,99427.00
2022-11-05T08:15:35.076Z,99427.00
2022-11-05T08:18:12.512Z,99428.94
2022-11-05T08:20:41.162Z,99421.22
2022-11-05T08:23:09.113Z,99409.72
2022-11-05T08:25:36.524Z,99424.88
2022-11-05T08:28:07.804Z,99418.66
2022-11-05T08:30:35.509Z,99421.19
2022-11-05T08:33:06.195Z,99431.44
2022-11-05T08:35:34.624Z,99435.22
2022-11-05T08:38:03.313Z,99443.44
2022-11-05T08:40:35.758Z,99446.03
2022-11-05T08:43:05.422Z,99448.59
2022-11-05T08:45:33.536Z,99444.69
2022-11-05T08:48:01.150Z,99448.53
2022-11-05T08:50:28.671Z,99457.91
2022-11-05T08:52:56.281Z,99471.25
2022-11-05T08:55:23.538Z,99460.81
2022-11-05T08:57:59.140Z,99476.38
2022-11-05T09:00:27.907Z,99477.66
2022-11-05T09:02:55.561Z,99481.25
2022-11-05T09:05:22.548Z,99477.81
2022-11-05T09:07:49.834Z,99471.88
2022-11-05T09:10:16.972Z,99487.56
2022-11-05T09:12:44.583Z,99487.69
2022-11-05T09:15:15.069Z,99490.38
2022-11-05T09:17:42.431Z,99488.44
2022-11-05T09:20:11.329Z,99486.81
2022-11-05T09:22:43.095Z,99483.22
2022-11-05T09:25:10.896Z,99491.31
2022-11-05T09:27:38.319Z,99485.53
2022-11-05T09:30:05.733Z,99490.69
2022-11-05T09:32:33.480Z,99492.19
2022-11-05T09:35:02.925Z,99500.81
2022-11-05T09:37:30.224Z,99505.19
2022-11-05T09:39:57.203Z,99502.41
2022-11-05T09:42:30.142Z,99492.81
2022-11-05T09:45:03.140Z,99486.59
2022-11-05T09:47:42.944Z,99490.75
2022-11-05T09:50:16.288Z,99497.25
2022-11-05T09:52:46.767Z,99485.53
2022-11-05T09:55:41.819Z,99491.97
2022-11-05T09:58:33.176Z,99493.22
2022-11-05T10:01:00.733Z,99494.94
2022-11-05T10:03:30.502Z,99497.59
2022-11-05T10:06:07.898Z,99496.41
2022-11-05T10:08:42.974Z,99503.88
2022-11-05T10:11:22.670Z,99500.31
2022-11-05T10:13:56.733Z,99502.94
2022-11-05T10:16:34.731Z,99508.25
2022-11-05T10:19:45.725Z,99511.69
2022-11-05T10:22:17.755Z,99514.69
2022-11-05T10:24:50.131Z,99517.31
2022-11-05T10:27:20.211Z,99511.69
2022-11-05T10:29:51.815Z,99510.81
2022-11-05T10:32:29.698Z,99495.94
2022-11-05T10:35:00.103Z,99501.38
2022-11-05T10:37:28.836Z,99504.66
2022-11-05T10:39:56.601Z,99505.53
2022-11-05T10:42:49.949Z,99513.25
2022-11-05T10:45:33.701Z,99520.66
2022-11-05T10:48:16.127Z,99528.09
2022-11-05T10:50:44.393Z,99540.56
2022-11-05T10:53:20.838Z,99547.16
2022-11-05T10:55:50.862Z,99548.31
2022-11-05T10:58:18.280Z,99549.31
2022-11-05T11:01:01.952Z,99543.75
2022-11-05T11:03:41.358Z,99548.66
2022-11-05T11:06:27.998Z,99550.34
2022-11-05T11:09:01.860Z,99534.75
2022-11-05T11:11:40.768Z,99544.47
2022-11-05T11:14:13.663Z,99542.66
2022-11-05T11:16:48.784Z,99536.66
2022-11-05T11:19:21.894Z,99530.56
2022-11-05T11:22:10.903Z,99524.78
2022-11-05T11:24:47.986Z,99508.50
2022-11-05T11:27:23.230Z,99506.13
2022-11-05T11:29:56.579Z,99511.03
2022-11-05T11:32:28.173Z,99515.69
2022-11-05T11:34:57.285Z,99519.16
2022-11-05T11:37:33.073Z,99526.94
2022-11-05T11:40:24.645Z,99521.72
2022-11-05T11:43:03.163Z,99514.75
2022-11-05T11:45:50.983Z,99514.41
2022-11-05T11:48:22.492Z,99525.81
2022-11-05T11:50:52.766Z,99532.38
2022-11-05T11:53:20.026Z,99532.75
2022-11-05T11:56:00.621Z,99534.47
2022-11-05T11:58:40.465Z,99542.44
2022-11-05T12:01:21.484Z,99538.91
2022-11-05T12:03:57.877Z,99536.78
2022-11-05T12:06:49.791Z,99537.25
2022-11-05T12:09:35.476Z,99546.19
2022-11-05T12:12:02.407Z,99547.16
2022-11-05T12:14:35.311Z,99536.69
2022-11-05T12:17:14.597Z,99546.63
2022-11-05T12:20:03.594Z,99544.69
2022-11-05T12:23:10.998Z,99554.94
2022-11-05T12:26:06.452Z,99555.47
2022-11-05T12:29:12.189Z,99545.84
2022-11-05T12:31:42.429Z,99553.44
2022-11-05T12:34:33.933Z,99557.84
2022-11-05T12:37:10.323Z,99554.31
2022-11-05T12:39:49.303Z,99555.13
2022-11-05T12:42:27.742Z,99559.66
2022-11-05T12:44:57.928Z,99565.19
2022-11-05T12:47:37.406Z,99563.16
2022-11-05T12:50:37.160Z,99558.78
2022-11-05T12:53:29.632Z,99557.38
2022-11-05T12:56:00.794Z,99555.78
2022-11-05T12:58:38.620Z,99567.31
2022-11-05T13:01:11.316Z,99571.16
2022-11-05T13:03:49.865Z,99572.44
2022-11-05T13:06:21.851Z,99569.56
2022-11-05T13:08:58.679Z,99579.41
2022-11-05T13:11:48.614Z,99578.44
2022-11-05T13:14:18.422Z,99574.38
2022-11-05T13:16:54.888Z,99582.81
2022-11-05T13:19:32.105Z,99597.47
2022-11-05T13:22:27.632Z,99587.94
2022-11-05T13:25:06.154Z,99593.31
2022-11-05T13:27:49.299Z,99590.72
2022-11-05T13:30:23.360Z,99590.41
2022-11-05T13:32:59.456Z,99595.31
2022-11-05T13:35:34.100Z,99596.38
2022-11-05T13:38:25.551Z,99589.78
2022-11-05T13:41:12.711Z,99586.53
2022-11-05T13:44:17.866Z,99596.16
2022-11-05T13:47:16.333Z,99607.56
2022-11-05T13:50:12.718Z,99612.69
2022-11-05T13:52:47.564Z,99618.56
2022-11-05T13:55:39.166Z,99620.38
2022-11-05T13:58:29.171Z,99622.94
2022-11-05T14:01:26.716Z,99629.53
2022-11-05T14:03:57.404Z,99625.59
2022-11-05T14:06:31.833Z,99635.38
2022-11-05T14:09:09.026Z,99630.69
2022-11-05T14:11:43.145Z,99639.00
2022-11-05T14:14:20.060Z,99645.63
2022-11-05T14:16:54.876Z,99648.41
2022-11-05T14:19:35.857Z,99650.41
2022-11-05T14:22:35.624Z,99659.81
2022-11-05T14:25:18.645Z,99655.88
2022-11-05T14:27:48.901Z,99669.94
2022-11-05T14:30:41.063Z,99674.75
2022-11-05T14:33:16.676Z,99676.22
2022-11-05T14:35:44.503Z,99669.50
2022-11-05T14:38:24.905Z,99673.22
2022-11-05T14:41:01.550Z,99682.09
2022-11-05T14:43:37.196Z,99684.09
2022-11-05T14:46:07.040Z,99683.91
2022-11-05T14:48:42.100Z,99684.22
2022-11-05T14:51:44.395Z,99684.94
2022-11-05T14:54:15.373Z,99684.22
2022-11-05T14:56:50.523Z,99684.22
2022-11-05T14:59:32.137Z,99684.28
2022-11-05T15:02:12.009Z,99688.03
2022-11-05T15:04:43.197Z,99679.28
2022-11-05T15:07:11.673Z,99681.81
2022-11-05T15:10:04.283Z,99692.16
2022-11-05T15:12:41.813Z,99692.47
2022-11-05T15:15:21.523Z,99693.75
2022-11-05T15:17:58.563Z,99704.63
2022-11-05T15:20:37.268Z,99696.06
2022-11-05T15:23:13.850Z,99704.16
2022-11-05T15:26:07.721Z,99717.50
2022-11-05T15:28:46.922Z,99723.34
2022-11-05T15:31:15.775Z,99721.88
2022-11-05T15:33:47.235Z,99734.75
2022-11-05T15:36:32.967Z,99736.78
2022-11-05T15:39:29.130Z,99735.03
2022-11-05T15:41:53.931Z,99733.50
2022-11-05T15:44:34.924Z,99729.00
2022-11-05T15:47:13.317Z,99726.00
2022-11-05T15:49:45.174Z,99736.25
2022-11-05T15:52:14.685Z,99733.56
2022-11-05T15:54:45.771Z,99733.56
2022-11-05T15:57:25.601Z,99722.25
2022-11-05T15:59:54.088Z,99722.59
2022-11-05T16:02:33.939Z,99720.66
2022-11-05T16:05:10.204Z,99733.84
2022-11-05T16:07:42.790Z,99737.75
2022-11-05T16:10:24.778Z,99744.38
2022-11-05T16:12:52.515Z,99745.19
2022-11-05T16:15:24.031Z,99749.00
2022-11-05T16:18:00.094Z,99755.84
2022-11-05T16:20:37.553Z,99756.41
2022-11-05T16:23:22.025Z,99756.72
2022-11-05T16:25:50.786Z,99755.47
2022-11-05T16:28:29.534Z,99756.59
2022-11-05T16:31:04.558Z,99765.66
2022-11-05T16:33:45.936Z,99760.88
2022-11-05T16:36:14.111Z,99764.66
2022-11-05T16:38:42.056Z,99768.69
2022-11-05T16:41:22.047Z,99769.19
2022-11-05T16:44:00.258Z,99768.66
2022-11-05T16:46:31.426Z,99768.66
2022-11-05T16:49:00.328Z,99768.94
2022-11-05T16:51:30.025Z,99766.69
2022-11-05T16:53:58.836Z,99778.03
2022-11-05T16:56:28.369Z,99783.34
2022-11-05T16:58:56.613Z,99790.41
2022-11-05T17:01:26.314Z,99793.53
2022-11-05T17:03:55.476Z,99795.59
2022-11-05T17:06:26.304Z,99792.09
2022-11-05T17:08:57.663Z,99795.66
2022-11-05T17:11:26.309Z,99792.66
2022-11-05T17:13:54.485Z,99801.47
2022-11-05T17:16:28.493Z,99805.81
2022-11-05T17:18:58.314Z,99813.16
2022-11-05T17:21:30.592Z,99815.22
2022-11-05T17:24:01.673Z,99825.53
2022-11-05T17:26:31.757Z,99833.09
2022-11-05T17:29:01.927Z,99836.63
2022-11-05T17:31:32.196Z,99839.16
2022-11-05T17:34:01.145Z,99841.69
2022-11-05T17:36:30.015Z,99837.91
2022-11-05T17:38:58.152Z,99850.25
2022-11-05T17:41:27.075Z,99845.03
2022-11-05T17:43:58.633Z,99844.28
2022-11-05T17:46:27.765Z,99858.09
2022-11-05T17:48:56.198Z,99863.38
2022-11-05T17:51:25.502Z,99860.34
2022-11-05T17:53:53.795Z,99857.09
2022-11-05T17:56:33.928Z,99861.09
2022-11-05T17:59:04.183Z,99863.63
2022-11-05T18:01:36.550Z,99864.81
2022-11-05T18:04:09.002Z,99864.06
2022-11-05T18:06:39.269Z,99863.75
2022-11-05T18:09:09.534Z,99861.47
2022-11-05T18:11:38.185Z,99870.75
2022-11-05T18:14:07.428Z,99862.91
2022-11-05T18:16:36.736Z,99870.44
2022-11-05T18:19:06.484Z,99866.41
2022-11-05T18:21:35.136Z,99866.66
2022-11-05T18:24:08.611Z,99871.66
2022-11-05T18:26:39.678Z,99869.88
2022-11-05T18:29:09.218Z,99870.41
2022-11-05T18:31:39.314Z,99868.09
2022-11-05T18:34:10.879Z,99880.66
2022-11-05T18:36:40.550Z,99880.88
2022-11-05T18:39:09.215Z,99873.56
2022-11-05T18:41:38.451Z,99882.84
2022-11-05T18:44:08.556Z,99887.88
2022-11-05T18:49:29.132Z,99890.88
2022-11-05T18:51:59.720Z,99887.66
2022-11-05T18:54:29.277Z,99889.16
2022-11-05T18:57:00.205Z,99893.41
2022-11-05T18:59:38.068Z,99894.69
2022-11-05T19:02:11.347Z,99896.13
2022-11-05T19:04:46.841Z,99898.38
2022-11-05T19:07:30.186Z,99908.22
2022-11-05T19:09:58.178Z,99909.47
2022-11-05T19:12:27.063Z,99912.47
2022-11-05T19:15:01.953Z,99914.00
2022-11-05T19:17:33.452Z,99915.25
2022-11-05T19:20:02.173Z,99922.06
2022-11-05T19:22:30.727Z,99931.63
2022-11-05T19:24:59.036Z,99932.91
2022-11-05T19:27:28.450Z,99934.22
2022-11-05T19:29:59.366Z,99923.97
2022-11-05T19:32:28.119Z,99943.38
2022-11-05T19:34:56.461Z,99946.16
2022-11-05T19:37:27.364Z,99946.69
2022-11-05T19:39:57.086Z,99958.31
2022-11-05T19:42:26.606Z,99956.84
2022-11-05T19:45:16.773Z,99954.91
2022-11-05T19:47:47.126Z,99953.19
2022-11-05T19:50:15.690Z,99951.97
2022-11-05T19:52:44.485Z,99945.22
2022-11-05T19:55:13.238Z,99956.53
2022-11-05T19:57:45.907Z,99967.38
2022-11-05T20:00:15.499Z,99962.34
2022-11-05T20:02:46.751Z,99968.38
2022-11-05T20:05:17.228Z,99969.66
2022-11-05T20:07:51.415Z,99970.38
2022-11-05T20:10:22.164Z,99974.66
2022-11-05T20:12:50.740Z,99977.41
2022-11-05T20:15:20.275Z,99976.94
2022-11-05T20:17:54.655Z,99973.91
2022-11-05T20:20:23.347Z,99978.69
2022-11-05T20:22:53.828Z,99985.72
2022-11-05T20:25:23.258Z,99980.69
2022-11-05T20:27:51.917Z,99981.44
2022-11-05T20:30:21.123Z,99986.47
2022-11-05T20:32:54.759Z,99988.72
2022-11-05T20:35:24.377Z,99990.75
2022-11-05T20:37:54.159Z,99988.75
2022-11-05T20:40:23.261Z,99992.25
2022-11-05T20:42:52.055Z,99989.47
2022-11-05T20:45:21.607Z,99983.91
2022-11-05T20:47:50.350Z,99992.19
2022-11-05T20:50:18.791Z,99993.97
2022-11-05T20:52:47.259Z,99993.19
2022-11-05T20:55:15.583Z,99991.94
2022-11-05T20:57:44.193Z,99994.44
2022-11-05T21:00:13.548Z,99987.94
2022-11-05T21:02:44.525Z,99991.69
2022-11-05T21:05:12.827Z,99991.19
2022-11-05T21:07:45.412Z,99993.44
2022-11-05T21:10:13.504Z,99991.66
2022-11-05T21:12:43.015Z,99991.41
2022-11-05T21:15:14.041Z,99994.41
2022-11-05T21:17:43.605Z,99998.44
2022-11-05T21:20:12.148Z,99992.41
2022-11-05T21:22:43.612Z,99993.16
2022-11-05T21:25:12.842Z,99997.16
2022-11-05T21:27:43.754Z,100001.69
2022-11-05T21:30:12.575Z,99999.66
2022-11-05T21:32:40.728Z,99997.16
2022-11-05T21:35:09.125Z,100001.13
2022-11-05T21:37:37.416Z,100003.16
2022-11-05T21:40:05.492Z,100002.13
2022-11-05T21:42:33.850Z,100008.13
2022-11-05T21:45:02.055Z,100004.09
2022-11-05T21:47:30.562Z,100006.31
2022-11-05T21:49:58.200Z,99999.06
2022-11-05T21:52:44.701Z,99993.28
2022-11-05T21:55:33.441Z,99998.28
2022-11-05T21:58:25.188Z,100000.28
2022-11-05T22:00:52.305Z,99997.03
2022-11-05T22:03:20.490Z,100006.53
2022-11-05T22:05:47.616Z,100014.50
2022-11-05T22:08:15.378Z,100000.00
2022-11-05T22:10:42.803Z,100004.50
2022-11-05T22:13:10.931Z,100007.00
2022-11-05T22:15:38.531Z,100011.03
2022-11-05T22:18:06.396Z,100003.47
2022-11-05T22:20:38.787Z,100006.00
2022-11-05T22:23:10.858Z,100010.22
2022-11-05T22:25:38.706Z,100015.47
2022-11-05T22:28:08.319Z,100007.94
2022-11-05T22:30:36.692Z,100014.44
2022-11-05T22:33:04.159Z,100016.94
2022-11-05T22:35:35.854Z,100014.13
2022-11-05T22:38:03.851Z,100011.88
2022-11-05T22:40:30.864Z,100012.09
2022-11-05T22:43:00.471Z,100011.56
2022-11-05T22:45:29.654Z,100013.56
2022-11-05T22:47:56.955Z,100012.28
2022-11-05T22:50:26.432Z,100018.50
2022-11-05T22:52:56.003Z,100016.72
2022-11-05T22:55:23.260Z,100014.69
2022-11-05T22:57:50.539Z,100016.41
2022-11-05T23:00:18.039Z,100018.38
2022-11-05T23:02:45.647Z,100019.16
2022-11-05T23:05:12.946Z,100016.91
2022-11-05T23:07:58.669Z,100021.19
2022-11-05T23:10:44.164Z,100020.19
2022-11-05T23:13:11.468Z,100019.16
2022-11-05T23:15:56.867Z,100021.47
2022-11-05T23:18:43.446Z,100022.41
2022-11-05T23:21:29.022Z,100028.41
2022-11-05T23:24:05.349Z,100013.63
2022-11-05T23:26:51.493Z,100021.84
2022-11-05T23:29:21.378Z,100013.53
2022-11-05T23:32:06.986Z,100015.03
2022-11-05T23:34:34.477Z,100012.50
2022-11-05T23:37:19.911Z,100004.41
2022-11-05T23:39:47.261Z,100003.31
2022-11-05T23:42:32.728Z,100005.28
2022-11-05T23:45:18.605Z,100007.00
2022-11-05T23:48:07.082Z,100000.91
2022-11-05T23:50:39.596Z,100011.16
2022-11-05T23:53:07.859Z,99999.66
2022-11-05T23:55:35.267Z,100006.41
2022-11-05T23:58:02.424Z,100013.69
